Time;durP1;ratioP1;P1;durP2;ratioP2;P2;SDS_P1;SDS_P2;PMS_P1;PMS_P2;Temp;Humidity;BMP_temperature;BMP_pressure;BME280_temperature;BME280_humidity;BME280_pressure;Samples;Min_cycle;Max_cycle;Signal;HPM_P1;HPM_P2
2023/06/25 00:01:53;;;;;;;8.75;3.78;;;;;;;18.90;100.00;94634.22;5110537;28;20258;-70
2023/06/25 00:04:21;;;;;;;7.03;3.38;;;;;;;18.88;100.00;94636.53;5110300;28;20668;-70
2023/06/25 00:06:48;;;;;;;10.40;4.53;;;;;;;18.74;100.00;94641.91;5110238;28;20617;-71
2023/06/25 00:09:15;;;;;;;8.93;4.05;;;;;;;18.84;100.00;94634.94;5110186;28;20205;-71
2023/06/25 00:11:41;;;;;;;7.10;3.55;;;;;;;19.02;100.00;94636.66;5109830;28;20255;-70
2023/06/25 00:14:09;;;;;;;5.95;3.28;;;;;;;19.13;100.00;94637.50;5103791;28;20626;-71
2023/06/25 00:16:36;;;;;;;6.50;3.83;;;;;;;19.21;100.00;94630.13;5118317;27;20220;-71
2023/06/25 00:19:04;;;;;;;7.32;4.25;;;;;;;19.15;100.00;94629.69;5103468;28;20210;-71
2023/06/25 00:21:32;;;;;;;4.57;3.20;;;;;;;18.99;100.00;94631.94;5105725;28;20231;-71
2023/06/25 00:23:58;;;;;;;8.73;4.13;;;;;;;18.98;100.00;94633.09;5123108;27;20201;-71
2023/06/25 00:26:27;;;;;;;7.07;4.50;;;;;;;19.09;100.00;94625.75;5097238;28;20214;-71
2023/06/25 00:28:54;;;;;;;8.65;4.18;;;;;;;19.29;100.00;94622.72;5119125;27;20197;-71
2023/06/25 00:31:22;;;;;;;6.82;4.47;;;;;;;19.30;100.00;94627.03;5117687;27;20237;-70
2023/06/25 00:33:49;;;;;;;7.03;4.20;;;;;;;19.35;100.00;94627.47;5122172;27;20308;-70
2023/06/25 00:36:16;;;;;;;7.55;4.20;;;;;;;19.31;100.00;94620.38;5124443;27;20201;-70
2023/06/25 00:38:44;;;;;;;8.13;3.58;;;;;;;19.15;100.00;94623.41;5120034;27;20261;-70
2023/06/25 00:41:11;;;;;;;5.95;3.60;;;;;;;19.05;100.00;94624.13;5117506;27;20208;-70
2023/06/25 00:43:41;;;;;;;8.68;3.95;;;;;;;18.95;100.00;94624.84;5121484;27;20310;-70
2023/06/25 00:46:12;;;;;;;8.00;4.40;;;;;;;18.87;100.00;94613.00;5110351;28;20266;-70
2023/06/25 00:48:45;;;;;;;6.07;4.10;;;;;;;18.82;100.00;94621.59;5122648;27;20541;-70
2023/06/25 00:51:14;;;;;;;6.03;3.88;;;;;;;18.77;100.00;94613.72;5117355;27;20222;-70
2023/06/25 00:53:41;;;;;;;6.30;3.83;;;;;;;18.72;100.00;94611.34;5117641;27;20229;-70
2023/06/25 00:56:09;;;;;;;7.50;4.10;;;;;;;18.61;100.00;94602.19;5103112;27;20249;-70
2023/06/25 00:58:38;;;;;;;8.80;3.97;;;;;;;18.65;100.00;94598.31;5116339;27;20205;-70
2023/06/25 01:01:11;;;;;;;6.78;4.20;;;;;;;18.69;100.00;94606.59;5117767;27;20236;-70
2023/06/25 01:03:45;;;;;;;7.88;4.50;;;;;;;18.80;100.00;94608.25;5117198;28;20193;-70
2023/06/25 01:06:20;;;;;;;7.90;5.15;;;;;;;18.82;100.00;94610.63;5121642;28;20427;-70
2023/06/25 01:08:50;;;;;;;6.72;4.15;;;;;;;18.87;100.00;94606.72;5124226;28;20197;-71
2023/06/25 01:11:17;;;;;;;8.98;5.20;;;;;;;18.78;100.00;94612.53;5121043;28;20188;-70
2023/06/25 01:13:44;;;;;;;8.07;4.63;;;;;;;18.76;100.00;94623.13;5108762;28;20234;-70
2023/06/25 01:16:11;;;;;;;6.72;4.25;;;;;;;18.47;100.00;94617.34;5099924;28;20613;-70
2023/06/25 01:18:39;;;;;;;8.13;4.75;;;;;;;18.42;100.00;94622.41;5123586;28;20202;-70
2023/06/25 01:21:08;;;;;;;6.95;4.32;;;;;;;18.34;100.00;94621.53;5120911;28;20639;-71
2023/06/25 01:23:37;;;;;;;7.90;4.18;;;;;;;18.35;100.00;94630.53;5117030;28;20203;-71
2023/06/25 01:26:04;;;;;;;11.52;4.80;;;;;;;18.34;100.00;94631.72;5118789;28;20205;-71
2023/06/25 01:28:31;;;;;;;8.38;4.28;;;;;;;18.32;100.00;94632.09;5123851;28;20219;-71
2023/06/25 01:30:57;;;;;;;6.68;4.55;;;;;;;18.32;100.00;94629.34;5122497;28;20208;-71
2023/06/25 01:33:25;;;;;;;7.35;4.32;;;;;;;18.27;100.00;94637.13;5116823;28;20232;-71
2023/06/25 01:35:53;;;;;;;10.30;4.88;;;;;;;18.24;100.00;94635.94;5117637;28;20533;-71
2023/06/25 01:38:19;;;;;;;8.88;4.68;;;;;;;18.19;100.00;94646.44;5124224;28;20292;-72
2023/06/25 01:40:48;;;;;;;9.63;5.07;;;;;;;18.17;100.00;94638.59;5123218;28;20201;-71
2023/06/25 01:43:15;;;;;;;7.80;4.03;;;;;;;18.16;100.00;94642.50;5116209;28;20274;-71
2023/06/25 01:45:41;;;;;;;10.05;4.50;;;;;;;18.20;100.00;94646.06;5116516;28;20198;-71
2023/06/25 01:48:09;;;;;;;7.22;4.43;;;;;;;18.17;100.00;94641.34;5122958;28;20202;-72
2023/06/25 01:50:35;;;;;;;8.23;4.45;;;;;;;18.14;100.00;94636.59;5123770;28;20685;-71
2023/06/25 01:53:02;;;;;;;8.35;4.75;;;;;;;18.14;100.00;94638.56;5117012;28;20197;-72
2023/06/25 01:55:29;;;;;;;10.20;4.05;;;;;;;18.13;100.00;94640.50;5116573;28;20233;-71
2023/06/25 01:57:57;;;;;;;9.82;3.85;;;;;;;18.11;100.00;94637.34;5122334;28;20587;-71
2023/06/25 02:00:24;;;;;;;7.22;4.40;;;;;;;18.08;100.00;94632.63;5111096;28;20201;-72
2023/06/25 02:02:51;;;;;;;5.90;3.90;;;;;;;18.10;100.00;94633.03;5121840;28;20205;-71
2023/06/25 02:05:18;;;;;;;10.05;4.40;;;;;;;18.13;100.00;94637.78;5122786;28;20573;-71
2023/06/25 02:07:45;;;;;;;9.15;4.30;;;;;;;18.11;100.00;94634.59;5116979;28;20684;-71
2023/06/25 02:10:15;;;;;;;10.02;4.03;;;;;;;18.08;100.00;94647.13;5118645;27;20227;-71
2023/06/25 02:12:42;;;;;;;9.23;4.30;;;;;;;18.09;100.00;94645.16;5125157;27;20219;-71
2023/06/25 02:15:10;;;;;;;11.32;4.40;;;;;;;18.04;100.00;94642.78;5126786;27;20295;-71
2023/06/25 02:17:37;;;;;;;5.50;3.10;;;;;;;18.08;100.00;94638.09;5122304;27;20611;-71
2023/06/25 02:20:05;;;;;;;8.43;4.43;;;;;;;18.07;100.00;94637.31;5114043;27;20228;-71
2023/06/25 02:22:31;;;;;;;10.95;5.30;;;;;;;18.08;100.00;94643.59;5119968;27;20288;-71
2023/06/25 02:24:58;;;;;;;8.27;4.90;;;;;;;18.13;100.00;94636.97;5125833;27;20196;-71
2023/06/25 02:27:25;;;;;;;10.75;4.80;;;;;;;18.13;100.00;94635.03;5122934;27;20586;-70
2023/06/25 02:29:52;;;;;;;10.90;4.88;;;;;;;18.15;100.00;94640.94;5115468;27;20298;-71
2023/06/25 02:32:20;;;;;;;11.35;5.03;;;;;;;18.19;100.00;94633.50;5125173;27;21084;-71
2023/06/25 02:34:47;;;;;;;11.38;4.55;;;;;;;18.15;100.00;94632.72;5127495;27;20291;-71
2023/06/25 02:37:15;;;;;;;9.82;4.03;;;;;;;18.16;100.00;94628.81;5112491;27;20232;-71
2023/06/25 02:39:41;;;;;;;11.68;5.28;;;;;;;18.18;100.00;94636.66;5114635;27;20610;-71
2023/06/25 02:42:08;;;;;;;9.02;4.57;;;;;;;18.18;100.00;94637.41;5123786;27;20225;-72
2023/06/25 02:44:35;;;;;;;9.38;4.50;;;;;;;18.20;100.00;94640.56;5114685;27;20202;-72
2023/06/25 02:47:02;;;;;;;10.45;4.95;;;;;;;18.22;100.00;94643.75;5104823;28;20193;-71
2023/06/25 02:49:31;;;;;;;9.45;4.97;;;;;;;18.24;100.00;94643.38;5120143;27;20213;-72
2023/06/25 02:51:57;;;;;;;11.27;5.18;;;;;;;18.26;100.00;94650.06;5100322;27;20567;-72
2023/06/25 02:54:24;;;;;;;8.63;4.90;;;;;;;18.23;100.00;94645.31;5110906;27;20623;-72
2023/06/25 02:56:52;;;;;;;8.73;5.10;;;;;;;18.21;100.00;94647.63;5117180;27;20238;-71
2023/06/25 02:59:19;;;;;;;10.20;4.32;;;;;;;18.23;100.00;94644.53;5130913;27;20684;-71
2023/06/25 03:01:46;;;;;;;10.95;4.28;;;;;;;18.25;100.00;94644.94;5120081;27;20394;-71
2023/06/25 03:04:13;;;;;;;11.05;5.28;;;;;;;18.24;100.00;94646.91;5112098;27;20249;-71
2023/06/25 03:06:41;;;;;;;12.73;5.97;;;;;;;18.24;100.00;94657.88;5119666;27;20262;-71
2023/06/25 03:09:08;;;;;;;15.85;5.80;;;;;;;18.18;100.00;94645.63;5125595;27;20209;-71
2023/06/25 03:11:35;;;;;;;6.80;3.90;;;;;;;18.22;100.00;94651.16;5116911;27;20678;-71
2023/06/25 03:14:02;;;;;;;9.27;5.20;;;;;;;18.25;100.00;94644.94;5120661;27;20225;-71
2023/06/25 03:16:29;;;;;;;11.48;5.75;;;;;;;18.21;100.00;94642.16;5126890;27;20224;-71
2023/06/25 03:18:55;;;;;;;9.70;5.43;;;;;;;18.18;100.00;94634.69;5112265;27;20206;-71
2023/06/25 03:21:22;;;;;;;5.82;3.67;;;;;;;18.23;100.00;94644.53;5103867;27;20303;-71
2023/06/25 03:23:50;;;;;;;11.85;6.38;;;;;;;18.28;100.00;94653.22;5116607;27;20198;-71
2023/06/25 03:26:17;;;;;;;14.77;5.50;;;;;;;18.21;100.00;94658.59;5125425;27;20205;-70
2023/06/25 03:28:44;;;;;;;8.00;5.25;;;;;;;18.13;100.00;94659.72;5113224;27;20193;-70
2023/06/25 03:31:11;;;;;;;12.68;5.43;;;;;;;17.99;100.00;94651.31;5108289;27;20206;-70
2023/06/25 03:33:37;;;;;;;10.50;6.65;;;;;;;17.95;100.00;94647.75;5124884;27;20201;-70
2023/06/25 03:36:05;;;;;;;10.23;5.40;;;;;;;17.98;100.00;94657.97;5112157;27;20241;-70
2023/06/25 03:38:31;;;;;;;10.80;5.90;;;;;;;17.98;100.00;94649.75;5118549;27;20210;-70
2023/06/25 03:40:59;;;;;;;10.13;6.18;;;;;;;18.01;100.00;94643.50;5124539;27;20200;-70
2023/06/25 03:43:26;;;;;;;9.90;5.70;;;;;;;18.00;100.00;94647.41;5097312;28;20230;-71
2023/06/25 03:45:53;;;;;;;12.57;6.53;;;;;;;17.98;100.00;94645.03;5110676;28;20197;-70
2023/06/25 03:48:20;;;;;;;16.23;7.18;;;;;;;18.03;100.00;94661.16;5111224;28;20193;-70
2023/06/25 03:50:46;;;;;;;12.32;5.85;;;;;;;17.99;100.00;94651.31;5123502;27;20288;-70
2023/06/25 03:53:13;;;;;;;12.02;5.75;;;;;;;18.06;100.00;94646.69;5098840;28;20202;-71
2023/06/25 03:55:40;;;;;;;10.00;6.32;;;;;;;18.10;100.00;94635.78;5110842;27;20226;-71
2023/06/25 03:58:08;;;;;;;15.90;7.07;;;;;;;18.02;100.00;94634.13;5127066;27;20307;-70
2023/06/25 04:00:35;;;;;;;10.55;6.25;;;;;;;18.03;100.00;94635.72;5127450;27;20197;-70
2023/06/25 04:03:02;;;;;;;11.55;6.38;;;;;;;17.97;100.00;94627.03;5115998;27;20193;-69
2023/06/25 04:05:28;;;;;;;14.10;6.78;;;;;;;18.00;100.00;94626.28;5115780;27;20214;-69
2023/06/25 04:07:55;;;;;;;12.57;6.60;;;;;;;17.89;100.00;94624.56;5126510;27;20197;-69
2023/06/25 04:10:22;;;;;;;14.35;6.78;;;;;;;17.82;100.00;94613.53;5115516;27;20194;-69
2023/06/25 04:12:49;;;;;;;12.93;6.72;;;;;;;17.81;100.00;94609.19;5115611;27;20201;-69
2023/06/25 04:15:17;;;;;;;11.48;6.60;;;;;;;17.82;100.00;94600.59;5115396;27;20271;-69
2023/06/25 04:17:46;;;;;;;11.48;5.78;;;;;;;17.79;100.00;94595.06;5130849;27;20695;-69
2023/06/25 04:20:13;;;;;;;14.85;6.70;;;;;;;17.85;100.00;94601.81;5110598;27;20226;-69
2023/06/25 04:22:40;;;;;;;15.60;6.30;;;;;;;17.87;100.00;94602.25;5097987;28;20202;-68
2023/06/25 04:25:08;;;;;;;11.10;5.82;;;;;;;17.99;100.00;94601.97;5125504;27;20205;-68
2023/06/25 04:27:34;;;;;;;11.15;6.13;;;;;;;17.98;100.00;94603.13;5112191;27;20260;-69
2023/06/25 04:30:01;;;;;;;13.05;7.03;;;;;;;18.02;100.00;94602.03;5103796;28;20210;-69
2023/06/25 04:32:29;;;;;;;8.63;4.75;;;;;;;17.99;100.00;94601.97;5115936;27;20209;-69
2023/06/25 04:34:56;;;;;;;13.57;6.47;;;;;;;17.95;100.00;94606.63;5121896;27;20221;-68
2023/06/25 04:37:23;;;;;;;9.57;5.47;;;;;;;17.93;100.00;94614.44;5107818;27;20649;-69
2023/06/25 04:39:49;;;;;;;10.57;5.80;;;;;;;17.87;100.00;94627.69;5109902;27;20209;-69
2023/06/25 04:42:16;;;;;;;14.13;6.10;;;;;;;17.77;100.00;94612.69;5121648;27;20228;-68
2023/06/25 04:44:43;;;;;;;15.85;6.65;;;;;;;17.77;100.00;94624.81;5111480;27;20194;-69
2023/06/25 04:47:10;;;;;;;12.43;6.30;;;;;;;17.77;100.00;94622.09;5112777;27;20247;-69
2023/06/25 04:49:38;;;;;;;16.85;6.47;;;;;;;17.77;100.00;94633.06;5121874;27;20651;-69
2023/06/25 04:52:05;;;;;;;15.45;6.25;;;;;;;17.73;100.00;94622.84;5130583;27;20265;-69
2023/06/25 04:54:32;;;;;;;13.32;6.13;;;;;;;17.73;100.00;94625.56;5116426;27;20228;-69
2023/06/25 04:56:59;;;;;;;13.00;6.28;;;;;;;17.89;100.00;94624.56;5108212;27;20194;-69
2023/06/25 04:59:25;;;;;;;11.82;6.05;;;;;;;17.90;100.00;94623.41;5127421;27;20193;-69
2023/06/25 05:01:52;;;;;;;9.77;6.07;;;;;;;17.90;100.00;94612.47;5117618;27;20224;-69
2023/06/25 05:04:19;;;;;;;12.57;6.60;;;;;;;17.91;100.00;94611.25;5112262;27;20197;-69
2023/06/25 05:06:47;;;;;;;13.32;6.55;;;;;;;17.93;100.00;94608.94;5116843;28;20204;-69
2023/06/25 05:09:14;;;;;;;11.27;5.65;;;;;;;17.84;100.00;94602.97;5123280;28;20205;-69
2023/06/25 05:11:40;;;;;;;11.93;6.32;;;;;;;17.92;100.00;94601.88;5104857;28;20203;-69
2023/06/25 05:14:07;;;;;;;12.18;6.90;;;;;;;17.90;100.00;94604.22;5116257;28;20607;-69
2023/06/25 05:16:34;;;;;;;13.82;6.75;;;;;;;17.92;100.00;94599.13;5116539;28;20286;-70
2023/06/25 05:19:01;;;;;;;8.68;5.47;;;;;;;18.02;100.00;94603.97;5095249;28;20630;-69
2023/06/25 05:21:27;;;;;;;12.60;6.05;;;;;;;18.07;100.00;94603.63;5101727;28;20198;-70
2023/06/25 05:24:00;;;;;;;11.90;6.40;;;;;;;18.02;100.00;94595.75;5107422;28;20200;-69
2023/06/25 05:26:27;;;;;;;12.30;6.55;;;;;;;18.13;100.00;94596.66;5127089;28;20301;-69
2023/06/25 05:28:54;;;;;;;12.48;6.45;;;;;;;18.11;100.00;94593.50;5111873;28;20205;-70
2023/06/25 05:31:21;;;;;;;10.18;6.00;;;;;;;18.21;100.00;94594.75;5107905;28;20260;-70
2023/06/25 05:33:48;;;;;;;12.50;6.13;;;;;;;18.20;100.00;94596.69;5118627;28;20868;-70
2023/06/25 05:36:17;;;;;;;11.35;5.88;;;;;;;18.26;100.00;94589.72;5097013;28;20290;-70
2023/06/25 05:38:43;;;;;;;14.23;6.43;;;;;;;18.31;100.00;94596.81;5100598;28;20263;-70
2023/06/25 05:41:11;;;;;;;12.13;6.32;;;;;;;18.23;100.00;94595.97;5101467;28;20732;-70
2023/06/25 05:43:38;;;;;;;13.40;6.25;;;;;;;18.54;100.00;94594.69;5100383;28;20285;-70
2023/06/25 05:46:05;;;;;;;11.15;6.45;;;;;;;18.50;100.00;94601.28;5109439;27;20652;-70
2023/06/25 05:48:32;;;;;;;11.05;5.38;;;;;;;18.56;100.00;94602.53;5105991;28;20698;-76
2023/06/25 05:50:59;;;;;;;12.20;6.43;;;;;;;18.69;100.00;94606.59;5106618;27;20204;-77
2023/06/25 05:53:25;;;;;;;12.63;6.75;;;;;;;19.01;100.00;94610.34;5104246;27;20194;-73
2023/06/25 05:55:52;;;;;;;13.02;7.20;;;;;;;19.68;100.00;94601.00;5107829;27;20221;-77
2023/06/25 05:58:20;;;;;;;8.70;6.10;;;;;;;19.95;100.00;94599.53;5110874;27;20210;-76
2023/06/25 06:00:47;;;;;;;11.90;6.88;;;;;;;20.24;100.00;94608.63;5114497;27;20197;-76
2023/06/25 06:03:14;;;;;;;10.60;6.22;;;;;;;20.23;100.00;94604.28;5112969;28;20198;-74
2023/06/25 06:05:41;;;;;;;15.30;5.43;;;;;;;20.45;100.00;94600.44;5110387;27;20205;-73
2023/06/25 06:08:07;;;;;;;10.77;5.85;;;;;;;20.53;100.00;94604.78;5124646;27;20194;-73
2023/06/25 06:10:34;;;;;;;10.75;5.20;;;;;;;20.54;100.00;94620.13;5110549;27;20212;-74
2023/06/25 06:13:01;;;;;;;10.32;5.57;;;;;;;20.45;100.00;94611.47;5094491;28;20255;-74
2023/06/25 06:15:29;;;;;;;11.15;5.63;;;;;;;20.21;100.00;94612.16;5115338;27;20627;-74
2023/06/25 06:17:56;;;;;;;9.70;4.65;;;;;;;20.35;100.00;94606.69;5124965;27;20250;-76
2023/06/25 06:20:22;;;;;;;8.10;4.78;;;;;;;20.50;100.00;94613.81;5113696;27;20198;-76
2023/06/25 06:22:49;;;;;;;6.63;4.10;;;;;;;21.02;100.00;94617.00;5112326;28;20626;-73
2023/06/25 06:25:16;;;;;;;8.15;4.80;;;;;;;21.14;99.59;94619.34;5111983;28;20675;-73
2023/06/25 06:27:43;;;;;;;20.77;8.02;;;;;;;21.82;99.24;94608.97;5124713;27;20207;-73
2023/06/25 06:30:11;;;;;;;8.77;5.50;;;;;;;22.50;94.08;94608.66;5112922;27;20202;-75
2023/06/25 06:32:39;;;;;;;14.10;7.68;;;;;;;23.38;89.37;94602.44;5111590;28;20198;-74
2023/06/25 06:35:06;;;;;;;14.27;6.95;;;;;;;24.08;89.35;94593.78;5118007;27;20278;-73
2023/06/25 06:37:33;;;;;;;9.90;6.00;;;;;;;24.38;82.62;94601.31;5118985;27;20194;-73
2023/06/25 06:39:59;;;;;;;13.23;8.80;;;;;;;25.54;82.00;94597.91;5119057;27;20206;-74
2023/06/25 06:42:26;;;;;;;6.55;3.63;;;;;;;25.17;75.08;94596.16;5109328;28;20221;-75
2023/06/25 06:44:53;;;;;;;9.23;6.80;;;;;;;25.21;77.21;94596.91;5111149;28;20664;-75
2023/06/25 06:47:20;;;;;;;8.30;5.68;;;;;;;25.17;75.82;94589.84;5111056;27;20201;-75
2023/06/25 06:49:48;;;;;;;8.73;5.78;;;;;;;24.95;74.93;94586.66;5109786;28;20194;-75
2023/06/25 06:52:15;;;;;;;6.57;3.97;;;;;;;24.85;74.85;94590.34;5110139;27;20554;-74
2023/06/25 06:54:42;;;;;;;5.53;4.25;;;;;;;25.13;73.32;94587.16;5111519;28;20208;-73
2023/06/25 06:57:09;;;;;;;7.90;4.57;;;;;;;25.93;71.43;94586.09;5110071;28;20310;-72
2023/06/25 06:59:35;;;;;;;6.90;4.40;;;;;;;25.66;70.13;94577.09;5111263;28;20201;-73
2023/06/25 07:02:02;;;;;;;5.07;3.70;;;;;;;26.13;69.22;94572.94;5112711;27;20661;-73
2023/06/25 07:04:29;;;;;;;5.65;4.10;;;;;;;26.45;67.06;94566.75;5111466;28;20243;-73
2023/06/25 07:06:57;;;;;;;6.93;4.30;;;;;;;27.52;65.26;94570.50;5110327;28;20718;-74
2023/06/25 07:09:26;;;;;;;5.22;3.95;;;;;;;25.81;68.27;94578.41;5109878;28;20255;-75
2023/06/25 07:11:53;;;;;;;7.78;4.15;;;;;;;25.83;66.70;94578.75;5112392;27;20198;-75
2023/06/25 07:14:20;;;;;;;5.38;4.50;;;;;;;26.30;67.03;94570.25;5113551;27;20572;-74
2023/06/25 07:16:47;;;;;;;7.72;4.15;;;;;;;27.25;65.64;94572.78;5109121;28;20218;-74
2023/06/25 07:19:13;;;;;;;6.28;3.75;;;;;;;26.58;64.24;94579.97;5109257;28;20247;-74
2023/06/25 07:21:40;;;;;;;7.05;4.07;;;;;;;28.14;63.03;94568.41;5110385;28;20678;-74
2023/06/25 07:24:10;;;;;;;11.13;4.25;;;;;;;29.81;56.67;94565.06;5109732;28;20606;-75
2023/06/25 07:26:36;;;;;;;6.35;3.90;;;;;;;29.76;55.04;94566.44;5110226;28;20193;-75
2023/06/25 07:29:03;;;;;;;7.18;4.38;;;;;;;28.93;58.10;94570.41;5110327;28;20201;-73
2023/06/25 07:31:50;;;;;;;5.60;4.20;;;;;;;27.77;60.64;94591.34;5105322;27;20705;-72
2023/06/25 07:34:17;;;;;;;6.53;4.55;;;;;;;26.51;65.57;94586.47;5104282;27;20210;-74
2023/06/25 07:36:44;;;;;;;4.75;4.20;;;;;;;25.43;66.97;94598.06;5104049;27;20225;-74
2023/06/25 07:39:24;;;;;;;5.30;4.05;;;;;;;24.91;70.60;94599.75;5103928;28;20206;-74
2023/06/25 07:41:50;;;;;;;6.55;4.53;;;;;;;23.54;77.34;94603.88;5092791;27;20197;-74
2023/06/25 07:44:17;;;;;;;8.45;5.22;;;;;;;22.38;82.16;94606.38;5102193;27;20206;-74
2023/06/25 07:46:44;;;;;;;8.73;5.65;;;;;;;22.36;84.01;94603.22;5103923;27;20197;-75
2023/06/25 07:49:11;;;;;;;9.18;5.60;;;;;;;22.69;83.24;94595.09;5105145;27;20254;-75
2023/06/25 07:51:37;;;;;;;6.30;4.88;;;;;;;22.65;82.35;94593.56;5109623;27;20205;-75
2023/06/25 07:54:04;;;;;;;7.20;4.85;;;;;;;22.81;81.42;94598.63;5101675;27;20286;-74
2023/06/25 07:56:35;;;;;;;7.68;5.47;;;;;;;22.74;83.29;94590.34;5104398;27;20233;-75
2023/06/25 07:59:02;;;;;;;9.85;5.10;;;;;;;22.68;82.17;94593.56;5109422;27;20246;-75
2023/06/25 08:01:29;;;;;;;9.50;5.60;;;;;;;23.57;80.86;94580.94;5109276;28;20712;-74
2023/06/25 08:03:57;;;;;;;7.32;5.43;;;;;;;23.77;78.72;94579.16;5101412;28;20557;-74
2023/06/25 08:06:24;;;;;;;5.70;4.65;;;;;;;24.01;80.02;94572.53;5104556;27;20794;-73
2023/06/25 08:08:50;;;;;;;6.20;4.90;;;;;;;24.51;75.67;94569.09;5106287;27;20740;-72
2023/06/25 08:11:17;;;;;;;5.57;4.55;;;;;;;23.96;76.96;94570.19;5103134;27;20197;-76
2023/06/25 08:13:45;;;;;;;5.28;4.28;;;;;;;24.18;77.49;94569.94;5103290;27;20639;-76
2023/06/25 08:16:12;;;;;;;5.22;4.43;;;;;;;24.91;71.64;94572.03;5103030;27;20226;-76
2023/06/25 08:18:39;;;;;;;6.13;3.65;;;;;;;24.03;75.91;94578.44;5104034;27;20259;-72
2023/06/25 08:21:05;;;;;;;5.82;4.63;;;;;;;23.68;76.10;94576.06;5101777;28;20198;-73
2023/06/25 08:23:32;;;;;;;6.25;4.90;;;;;;;23.60;75.84;94577.38;5104162;27;20194;-74
2023/06/25 08:25:59;;;;;;;6.63;5.35;;;;;;;23.84;74.60;94572.72;5100072;27;20201;-73
2023/06/25 08:28:26;;;;;;;6.55;4.40;;;;;;;24.04;72.79;94577.22;5107984;28;20238;-73
2023/06/25 08:30:54;;;;;;;6.13;4.72;;;;;;;24.83;70.72;94576.13;5108882;27;20201;-73
2023/06/25 08:33:20;;;;;;;6.53;5.10;;;;;;;24.09;73.27;94585.06;5100475;27;20189;-73
2023/06/25 08:35:47;;;;;;;7.85;5.72;;;;;;;24.31;72.80;94582.06;5100604;27;20534;-74
2023/06/25 08:38:17;;;;;;;6.93;5.18;;;;;;;24.49;73.51;94579.78;5098692;28;20206;-73
2023/06/25 08:40:47;;;;;;;8.48;5.75;;;;;;;25.01;70.13;94577.41;5101130;27;20244;-74
2023/06/25 08:43:14;;;;;;;6.38;5.45;;;;;;;25.47;71.21;94573.84;5099222;27;20711;-74
2023/06/25 08:45:41;;;;;;;7.97;5.40;;;;;;;25.48;69.43;94572.63;5102479;27;20576;-74
2023/06/25 08:48:13;;;;;;;8.75;5.95;;;;;;;25.49;68.10;94568.66;5100726;27;20721;-74
2023/06/25 08:50:42;;;;;;;6.32;5.13;;;;;;;26.13;65.55;94561.84;5099133;28;20735;-74
2023/06/25 08:53:09;;;;;;;11.43;5.60;;;;;;;26.73;63.79;94558.97;5100411;27;20653;-74
2023/06/25 08:55:36;;;;;;;8.52;5.57;;;;;;;26.87;61.63;94567.75;5099504;27;20241;-74
2023/06/25 08:58:03;;;;;;;7.60;5.55;;;;;;;27.61;60.82;94566.34;5097211;28;20427;-75
2023/06/25 09:00:29;;;;;;;7.70;5.78;;;;;;;28.88;57.59;94551.44;5103330;28;20281;-73
2023/06/25 09:02:56;;;;;;;8.88;6.88;;;;;;;29.40;56.65;94550.16;5102071;28;20723;-72
2023/06/25 09:05:26;;;;;;;10.10;6.20;;;;;;;29.16;55.74;94543.38;5105615;28;20262;-74
2023/06/25 09:07:53;;;;;;;8.45;5.72;;;;;;;28.90;57.14;94542.63;5106352;28;20277;-74
2023/06/25 09:10:20;;;;;;;7.15;5.43;;;;;;;28.88;55.84;94539.50;5109050;28;20229;-73
2023/06/25 09:12:50;;;;;;;7.38;5.32;;;;;;;27.85;58.62;94553.72;5103223;28;20257;-74
2023/06/25 09:15:20;;;;;;;7.50;5.28;;;;;;;28.80;57.28;94538.19;5104818;28;20217;-73
2023/06/25 09:17:47;;;;;;;7.95;5.10;;;;;;;27.72;58.30;94544.56;5098779;28;20217;-74
2023/06/25 09:20:14;;;;;;;5.70;4.70;;;;;;;27.97;59.77;94544.63;5099698;27;20834;-73
2023/06/25 09:22:53;;;;;;;4.75;3.88;;;;;;;27.20;58.87;94548.28;5108934;27;20246;-74
2023/06/25 09:25:20;;;;;;;5.22;3.85;;;;;;;27.07;59.74;94539.06;5109246;27;20253;-74
2023/06/25 09:27:48;;;;;;;4.65;3.55;;;;;;;26.76;59.12;94542.22;5104500;27;20206;-74
2023/06/25 09:30:17;;;;;;;4.00;3.60;;;;;;;27.09;58.95;94542.22;5105855;27;20212;-76
2023/06/25 09:32:51;;;;;;;5.47;4.13;;;;;;;27.48;57.47;94533.63;5104230;28;20197;-77
2023/06/25 09:35:22;;;;;;;4.82;3.60;;;;;;;27.65;58.49;94523.25;5107042;27;20197;-74
2023/06/25 09:37:52;;;;;;;5.47;4.03;;;;;;;27.64;57.56;94521.69;5100629;28;20776;-76
2023/06/25 09:40:19;;;;;;;5.10;3.90;;;;;;;27.71;56.62;94515.16;5104683;27;20250;-75
2023/06/25 09:42:48;;;;;;;3.97;3.58;;;;;;;27.65;56.33;94520.47;5108958;27;20699;-74
2023/06/25 09:45:17;;;;;;;6.20;4.00;;;;;;;27.97;55.42;94516.78;5106863;27;20201;-74
2023/06/25 09:47:46;;;;;;;4.80;3.78;;;;;;;27.45;56.41;94515.03;5110545;27;20201;-73
2023/06/25 09:50:18;;;;;;;8.27;3.40;;;;;;;28.27;56.02;94504.38;5110806;27;20254;-73
2023/06/25 09:52:55;;;;;;;5.05;3.75;;;;;;;28.05;55.44;94506.97;5107550;27;20194;-74
2023/06/25 09:55:24;;;;;;;4.97;3.72;;;;;;;28.69;54.97;94499.47;5114823;27;20194;-74
2023/06/25 09:57:52;;;;;;;5.55;3.70;;;;;;;29.51;52.71;94491.94;5112025;28;20225;-74
2023/06/25 10:00:21;;;;;;;5.10;3.67;;;;;;;29.06;52.90;94499.88;5110982;27;20660;-74
2023/06/25 10:02:48;;;;;;;3.90;3.50;;;;;;;28.62;55.21;94494.88;5110552;28;20493;-74
2023/06/25 10:05:15;;;;;;;4.10;3.67;;;;;;;28.55;54.83;94492.34;5106882;27;20709;-75
2023/06/25 10:07:42;;;;;;;6.72;3.75;;;;;;;28.38;55.43;94504.03;5104263;27;20214;-76
2023/06/25 10:10:20;;;;;;;4.03;3.63;;;;;;;28.74;54.30;94490.53;5107524;27;20201;-78
2023/06/25 10:12:48;;;;;;;4.63;3.40;;;;;;;29.17;56.43;94483.53;5101204;27;20282;-78
2023/06/25 10:15:15;;;;;;;4.80;3.40;;;;;;;28.07;55.15;94487.81;5105255;27;20204;-74
2023/06/25 10:17:47;;;;;;;4.90;4.00;;;;;;;26.92;58.05;94482.25;5106336;27;20229;-74
2023/06/25 10:20:13;;;;;;;5.40;3.80;;;;;;;26.09;60.69;94482.63;5111371;27;20205;-74
2023/06/25 10:22:43;;;;;;;4.57;3.50;;;;;;;26.73;60.23;94484.69;5106438;27;20197;-73
2023/06/25 10:25:10;;;;;;;4.82;3.65;;;;;;;27.63;58.94;94474.81;5108981;27;20208;-74
2023/06/25 10:27:37;;;;;;;3.85;3.50;;;;;;;27.74;58.85;94469.72;5106208;27;20202;-74
2023/06/25 10:30:14;;;;;;;4.70;3.83;;;;;;;27.83;59.07;94462.28;5103622;28;20542;-75
2023/06/25 10:32:42;;;;;;;4.90;3.80;;;;;;;27.88;57.58;94464.50;5103427;27;20194;-75
2023/06/25 10:35:09;;;;;;;4.32;3.85;;;;;;;27.91;57.06;94460.06;5108162;27;20201;-75
2023/06/25 10:37:36;;;;;;;4.43;4.03;;;;;;;27.11;59.15;94467.47;5105849;27;20225;-74
2023/06/25 10:40:05;;;;;;;5.45;3.80;;;;;;;27.12;57.95;94464.25;5103522;27;20205;-74
2023/06/25 10:42:32;;;;;;;4.07;3.60;;;;;;;27.65;56.94;94461.22;5108324;27;20278;-74
2023/06/25 10:45:00;;;;;;;5.05;3.83;;;;;;;26.68;60.09;94457.41;5106529;27;20258;-74
2023/06/25 10:47:28;;;;;;;4.47;3.90;;;;;;;26.49;61.19;94455.53;5110717;27;20201;-74
2023/06/25 10:49:55;;;;;;;5.55;3.95;;;;;;;27.01;59.98;94451.84;5105251;27;20198;-74
2023/06/25 10:52:22;;;;;;;4.88;3.80;;;;;;;27.69;57.60;94436.88;5109477;27;20209;-74
2023/06/25 10:54:48;;;;;;;4.40;3.60;;;;;;;27.54;56.25;94436.47;5108370;27;20739;-75
2023/06/25 10:57:16;;;;;;;5.43;3.80;;;;;;;27.86;56.74;94430.00;5101979;27;20229;-74
2023/06/25 10:59:44;;;;;;;4.88;3.60;;;;;;;27.45;57.76;94425.22;5102157;27;21083;-74
2023/06/25 11:02:13;;;;;;;6.00;3.55;;;;;;;27.67;58.89;94419.81;5106179;27;20197;-74
2023/06/25 11:04:42;;;;;;;4.50;3.72;;;;;;;27.33;61.48;94417.59;5103684;27;20221;-74
2023/06/25 11:07:11;;;;;;;4.60;3.92;;;;;;;27.44;59.33;94404.94;5104099;27;20216;-74
2023/06/25 11:09:38;;;;;;;5.00;3.22;;;;;;;27.40;59.67;94409.81;5105713;27;20206;-78
2023/06/25 11:12:06;;;;;;;6.63;4.20;;;;;;;27.24;60.88;94405.09;5102922;27;20231;-79
2023/06/25 11:14:33;;;;;;;8.02;5.43;;;;;;;27.53;58.44;94399.50;5107749;27;20202;-78
2023/06/25 11:17:00;;;;;;;4.15;3.40;;;;;;;27.44;55.80;94404.16;5109704;27;20244;-79
2023/06/25 11:19:27;;;;;;;4.43;3.42;;;;;;;27.97;56.18;94399.03;5105303;27;20194;-78
2023/06/25 11:21:55;;;;;;;4.88;3.40;;;;;;;28.19;57.29;94395.13;5118722;27;20197;-77
2023/06/25 11:24:22;;;;;;;5.03;4.35;;;;;;;26.81;60.69;94405.44;5114058;27;20243;-78
2023/06/25 11:26:57;;;;;;;6.32;4.00;;;;;;;27.04;61.78;94398.16;5110200;27;20212;-78
2023/06/25 11:29:25;;;;;;;4.95;4.00;;;;;;;27.61;59.27;94394.53;5111279;27;20193;-77